sensor_id;sensor_type;location;lat;lon;timestamp;pressure;altitude;pressure_sealevel;temperature;humidity
79703;BME280;69172;52.352;5.006;2023-04-10T01:04:21;101984.56;;;9.68;58.34
79703;BME280;69172;52.352;5.006;2023-04-10T01:07:13;101985.59;;;9.70;58.83
79703;BME280;69172;52.352;5.006;2023-04-10T01:15:27;101964.34;;;9.61;59.04
79703;BME280;69172;52.352;5.006;2023-04-10T01:20:39;101933.88;;;9.44;59.13
79703;BME280;69172;52.352;5.006;2023-04-10T01:26:32;101950.25;;;9.56;59.75
79703;BME280;69172;52.352;5.006;2023-04-10T01:31:38;101947.31;;;9.51;60.00
79703;BME280;69172;52.352;5.006;2023-04-10T01:34:08;101935.72;;;9.35;60.23
79703;BME280;69172;52.352;5.006;2023-04-10T01:36:50;101930.47;;;9.33;60.61
79703;BME280;69172;52.352;5.006;2023-04-10T01:39:30;101955.97;;;9.42;60.66
79703;BME280;69172;52.352;5.006;2023-04-10T01:42:02;101944.81;;;9.41;60.27
79703;BME280;69172;52.352;5.006;2023-04-10T01:44:33;101920.28;;;9.23;60.68
79703;BME280;69172;52.352;5.006;2023-04-10T01:47:08;101941.00;;;9.36;61.16
79703;BME280;69172;52.352;5.006;2023-04-10T01:49:46;101930.13;;;9.29;60.56
79703;BME280;69172;52.352;5.006;2023-04-10T01:52:13;101938.28;;;9.35;60.87
79703;BME280;69172;52.352;5.006;2023-04-10T01:54:40;101936.38;;;9.32;61.15
79703;BME280;69172;52.352;5.006;2023-04-10T01:57:07;101934.72;;;9.33;60.94
79703;BME280;69172;52.352;5.006;2023-04-10T01:59:34;101919.72;;;9.27;61.00
79703;BME280;69172;52.352;5.006;2023-04-10T02:02:00;101924.88;;;9.27;61.27
79703;BME280;69172;52.352;5.006;2023-04-10T02:04:26;101923.44;;;9.31;61.39
79703;BME280;69172;52.352;5.006;2023-04-10T02:12:01;101914.25;;;9.23;62.18
79703;BME280;69172;52.352;5.006;2023-04-10T02:14:31;101916.25;;;9.27;62.01
79703;BME280;69172;52.352;5.006;2023-04-10T02:16:56;101911.59;;;9.21;62.08
79703;BME280;69172;52.352;5.006;2023-04-10T02:19:24;101915.16;;;9.23;61.99
79703;BME280;69172;52.352;5.006;2023-04-10T02:21:51;101911.78;;;9.24;62.69
79703;BME280;69172;52.352;5.006;2023-04-10T02:24:18;101902.06;;;9.20;62.80
79703;BME280;69172;52.352;5.006;2023-04-10T02:26:49;101912.69;;;9.25;62.51
79703;BME280;69172;52.352;5.006;2023-04-10T02:29:15;101914.59;;;9.27;62.52
79703;BME280;69172;52.352;5.006;2023-04-10T02:31:41;101908.22;;;9.22;62.79
79703;BME280;69172;52.352;5.006;2023-04-10T02:34:07;101911.69;;;9.23;63.22
79703;BME280;69172;52.352;5.006;2023-04-10T02:36:34;101913.34;;;9.22;62.97
79703;BME280;69172;52.352;5.006;2023-04-10T02:39:00;101899.03;;;9.14;62.73
79703;BME280;69172;52.352;5.006;2023-04-10T02:41:25;101900.59;;;9.12;63.39
79703;BME280;69172;52.352;5.006;2023-04-10T02:43:51;101909.94;;;9.12;63.95
79703;BME280;69172;52.352;5.006;2023-04-10T02:46:16;101921.88;;;9.11;64.24
79703;BME280;69172;52.352;5.006;2023-04-10T02:48:41;101926.91;;;9.10;64.04
79703;BME280;69172;52.352;5.006;2023-04-10T02:51:07;101927.66;;;9.09;63.71
79703;BME280;69172;52.352;5.006;2023-04-10T02:53:33;101930.53;;;9.02;64.17
79703;BME280;69172;52.352;5.006;2023-04-10T02:55:58;101923.84;;;9.04;64.28
79703;BME280;69172;52.352;5.006;2023-04-10T02:58:24;101918.47;;;9.01;64.20
79703;BME280;69172;52.352;5.006;2023-04-10T03:00:50;101926.66;;;9.07;64.74
79703;BME280;69172;52.352;5.006;2023-04-10T03:03:18;101922.84;;;9.02;64.29
79703;BME280;69172;52.352;5.006;2023-04-10T03:05:45;101922.72;;;9.00;64.63
79703;BME280;69172;52.352;5.006;2023-04-10T03:08:14;101914.00;;;8.98;64.53
79703;BME280;69172;52.352;5.006;2023-04-10T03:10:45;101915.00;;;9.00;64.26
79703;BME280;69172;52.352;5.006;2023-04-10T03:13:13;101920.03;;;8.98;65.11
79703;BME280;69172;52.352;5.006;2023-04-10T03:15:38;101913.00;;;8.96;65.03
79703;BME280;69172;52.352;5.006;2023-04-10T03:18:04;101901.34;;;8.89;65.36
79703;BME280;69172;52.352;5.006;2023-04-10T03:20:30;101913.91;;;8.96;65.09
79703;BME280;69172;52.352;5.006;2023-04-10T03:22:57;101905.66;;;9.01;64.54
79703;BME280;69172;52.352;5.006;2023-04-10T03:25:23;101898.44;;;9.07;63.86
79703;BME280;69172;52.352;5.006;2023-04-10T03:27:48;101905.59;;;9.11;63.67
79703;BME280;69172;52.352;5.006;2023-04-10T03:30:14;101901.00;;;9.07;63.87
79703;BME280;69172;52.352;5.006;2023-04-10T03:32:41;101887.94;;;9.04;63.50
79703;BME280;69172;52.352;5.006;2023-04-10T03:35:08;101892.81;;;9.01;64.09
79703;BME280;69172;52.352;5.006;2023-04-10T03:37:34;101887.59;;;8.99;64.27
79703;BME280;69172;52.352;5.006;2023-04-10T03:39:59;101894.47;;;9.00;64.33
79703;BME280;69172;52.352;5.006;2023-04-10T03:42:25;101891.16;;;9.01;64.28
79703;BME280;69172;52.352;5.006;2023-04-10T03:44:51;101893.72;;;9.01;63.92
79703;BME280;69172;52.352;5.006;2023-04-10T03:47:17;101886.53;;;8.97;64.02
79703;BME280;69172;52.352;5.006;2023-04-10T03:49:42;101874.19;;;9.03;64.00
79703;BME280;69172;52.352;5.006;2023-04-10T03:52:07;101867.16;;;9.01;63.46
79703;BME280;69172;52.352;5.006;2023-04-10T03:54:33;101872.53;;;9.04;63.63
79703;BME280;69172;52.352;5.006;2023-04-10T03:56:59;101864.50;;;8.99;63.54
79703;BME280;69172;52.352;5.006;2023-04-10T03:59:25;101865.75;;;9.04;63.52
79703;BME280;69172;52.352;5.006;2023-04-10T04:01:51;101852.66;;;9.01;63.37
79703;BME280;69172;52.352;5.006;2023-04-10T04:04:17;101856.78;;;8.99;63.41
79703;BME280;69172;52.352;5.006;2023-04-10T04:06:42;101865.97;;;9.07;63.68
79703;BME280;69172;52.352;5.006;2023-04-10T04:09:08;101854.16;;;9.09;63.38
79703;BME280;69172;52.352;5.006;2023-04-10T04:11:33;101849.69;;;9.07;63.21
79703;BME280;69172;52.352;5.006;2023-04-10T04:13:59;101852.34;;;9.08;63.25
79703;BME280;69172;52.352;5.006;2023-04-10T04:16:24;101850.81;;;9.10;62.91
79703;BME280;69172;52.352;5.006;2023-04-10T04:18:49;101846.47;;;9.09;62.38
79703;BME280;69172;52.352;5.006;2023-04-10T04:21:15;101845.91;;;9.13;62.53
79703;BME280;69172;52.352;5.006;2023-04-10T04:23:40;101838.34;;;9.15;62.47
79703;BME280;69172;52.352;5.006;2023-04-10T04:26:06;101837.69;;;9.17;61.33
79703;BME280;69172;52.352;5.006;2023-04-10T04:28:31;101814.09;;;9.11;61.10
79703;BME280;69172;52.352;5.006;2023-04-10T04:30:57;101824.59;;;9.14;61.23
79703;BME280;69172;52.352;5.006;2023-04-10T04:33:23;101834.44;;;9.20;61.70
79703;BME280;69172;52.352;5.006;2023-04-10T04:35:48;101821.50;;;9.18;60.98
79703;BME280;69172;52.352;5.006;2023-04-10T04:38:13;101829.13;;;9.28;59.98
79703;BME280;69172;52.352;5.006;2023-04-10T04:40:40;101823.22;;;9.29;59.71
79703;BME280;69172;52.352;5.006;2023-04-10T04:43:06;101825.66;;;9.28;59.70
79703;BME280;69172;52.352;5.006;2023-04-10T04:45:31;101826.56;;;9.28;59.94
79703;BME280;69172;52.352;5.006;2023-04-10T04:47:57;101823.34;;;9.31;59.88
79703;BME280;69172;52.352;5.006;2023-04-10T04:50:22;101822.09;;;9.26;59.73
79703;BME280;69172;52.352;5.006;2023-04-10T04:52:48;101814.63;;;9.29;59.85
79703;BME280;69172;52.352;5.006;2023-04-10T04:55:13;101812.97;;;9.29;59.45
79703;BME280;69172;52.352;5.006;2023-04-10T04:57:38;101809.84;;;9.33;59.40
79703;BME280;69172;52.352;5.006;2023-04-10T05:00:04;101818.78;;;9.38;59.12
79703;BME280;69172;52.352;5.006;2023-04-10T05:02:30;101810.16;;;9.38;59.47
79703;BME280;69172;52.352;5.006;2023-04-10T05:04:55;101803.28;;;9.48;59.48
79703;BME280;69172;52.352;5.006;2023-04-10T05:07:21;101816.25;;;9.50;59.67
79703;BME280;69172;52.352;5.006;2023-04-10T05:09:46;101810.78;;;9.45;59.90
79703;BME280;69172;52.352;5.006;2023-04-10T05:12:12;101820.38;;;9.48;60.07
79703;BME280;69172;52.352;5.006;2023-04-10T05:14:37;101815.91;;;9.45;60.01
79703;BME280;69172;52.352;5.006;2023-04-10T05:17:02;101812.31;;;9.43;60.25
79703;BME280;69172;52.352;5.006;2023-04-10T05:19:28;101809.88;;;9.45;60.46
79703;BME280;69172;52.352;5.006;2023-04-10T05:21:53;101805.84;;;9.37;60.47
79703;BME280;69172;52.352;5.006;2023-04-10T05:24:18;101815.53;;;9.41;60.58
79703;BME280;69172;52.352;5.006;2023-04-10T05:26:44;101812.88;;;9.39;60.40
79703;BME280;69172;52.352;5.006;2023-04-10T05:29:10;101816.09;;;9.37;60.34
79703;BME280;69172;52.352;5.006;2023-04-10T05:31:37;101813.53;;;9.37;60.37
79703;BME280;69172;52.352;5.006;2023-04-10T05:34:02;101814.19;;;9.34;60.63
79703;BME280;69172;52.352;5.006;2023-04-10T05:36:28;101806.13;;;9.30;60.71
79703;BME280;69172;52.352;5.006;2023-04-10T05:38:55;101813.84;;;9.30;60.68
79703;BME280;69172;52.352;5.006;2023-04-10T05:41:21;101816.78;;;9.34;60.37
79703;BME280;69172;52.352;5.006;2023-04-10T05:43:46;101819.56;;;9.37;60.22
79703;BME280;69172;52.352;5.006;2023-04-10T05:46:11;101816.09;;;9.37;59.93
79703;BME280;69172;52.352;5.006;2023-04-10T05:48:37;101813.41;;;9.35;59.79
79703;BME280;69172;52.352;5.006;2023-04-10T05:51:03;101805.47;;;9.32;59.92
79703;BME280;69172;52.352;5.006;2023-04-10T05:53:29;101809.31;;;9.37;59.84
79703;BME280;69172;52.352;5.006;2023-04-10T05:55:58;101805.69;;;9.35;60.18
79703;BME280;69172;52.352;5.006;2023-04-10T05:58:25;101807.31;;;9.45;59.82
79703;BME280;69172;52.352;5.006;2023-04-10T06:00:51;101795.91;;;9.41;59.58
79703;BME280;69172;52.352;5.006;2023-04-10T06:03:18;101813.22;;;9.44;59.18
79703;BME280;69172;52.352;5.006;2023-04-10T06:05:46;101799.38;;;9.42;59.45
79703;BME280;69172;52.352;5.006;2023-04-10T06:08:11;101791.00;;;9.44;59.67
79703;BME280;69172;52.352;5.006;2023-04-10T06:10:37;101793.22;;;9.51;59.32
79703;BME280;69172;52.352;5.006;2023-04-10T06:13:03;101787.22;;;9.51;59.07
79703;BME280;69172;52.352;5.006;2023-04-10T06:15:31;101783.09;;;9.53;59.07
79703;BME280;69172;52.352;5.006;2023-04-10T06:17:57;101788.47;;;9.56;58.81
79703;BME280;69172;52.352;5.006;2023-04-10T06:20:23;101780.63;;;9.54;58.80
79703;BME280;69172;52.352;5.006;2023-04-10T06:22:48;101771.25;;;9.55;59.01
79703;BME280;69172;52.352;5.006;2023-04-10T06:25:13;101781.75;;;9.58;59.10
79703;BME280;69172;52.352;5.006;2023-04-10T06:27:39;101775.72;;;9.57;59.24
79703;BME280;69172;52.352;5.006;2023-04-10T06:30:05;101771.94;;;9.64;58.66
79703;BME280;69172;52.352;5.006;2023-04-10T06:32:31;101750.84;;;9.56;58.72
79703;BME280;69172;52.352;5.006;2023-04-10T06:34:57;101753.28;;;9.67;58.82
79703;BME280;69172;52.352;5.006;2023-04-10T06:37:30;101742.78;;;9.64;58.31
79703;BME280;69172;52.352;5.006;2023-04-10T06:40:07;101737.53;;;9.74;58.39
79703;BME280;69172;52.352;5.006;2023-04-10T06:42:34;101716.22;;;9.75;58.26
79703;BME280;69172;52.352;5.006;2023-04-10T06:45:00;101726.16;;;9.82;57.94
79703;BME280;69172;52.352;5.006;2023-04-10T06:47:27;101721.00;;;9.82;57.35
79703;BME280;69172;52.352;5.006;2023-04-10T06:49:53;101721.31;;;9.98;56.99
79703;BME280;69172;52.352;5.006;2023-04-10T06:52:19;101704.59;;;9.91;57.18
79703;BME280;69172;52.352;5.006;2023-04-10T06:54:45;101701.78;;;10.00;56.82
79703;BME280;69172;52.352;5.006;2023-04-10T06:57:10;101714.38;;;10.08;56.66
79703;BME280;69172;52.352;5.006;2023-04-10T06:59:37;101705.09;;;10.22;56.14
79703;BME280;69172;52.352;5.006;2023-04-10T07:02:02;101686.50;;;10.13;56.44
79703;BME280;69172;52.352;5.006;2023-04-10T07:04:28;101701.41;;;10.30;55.91
79703;BME280;69172;52.352;5.006;2023-04-10T07:06:54;101702.81;;;10.38;55.42
79703;BME280;69172;52.352;5.006;2023-04-10T07:09:20;101691.72;;;10.51;55.47
79703;BME280;69172;52.352;5.006;2023-04-10T07:11:45;101696.50;;;10.58;55.32
79703;BME280;69172;52.352;5.006;2023-04-10T07:14:12;101688.00;;;10.59;54.75
79703;BME280;69172;52.352;5.006;2023-04-10T07:16:37;101686.69;;;10.77;54.88
79703;BME280;69172;52.352;5.006;2023-04-10T07:19:03;101676.03;;;10.84;54.50
79703;BME280;69172;52.352;5.006;2023-04-10T07:21:28;101680.94;;;11.06;53.90
79703;BME280;69172;52.352;5.006;2023-04-10T07:23:54;101672.75;;;11.24;53.19
79703;BME280;69172;52.352;5.006;2023-04-10T07:26:20;101671.78;;;11.35;52.63
79703;BME280;69172;52.352;5.006;2023-04-10T07:28:46;101666.91;;;11.40;53.03
79703;BME280;69172;52.352;5.006;2023-04-10T07:31:11;101668.31;;;11.48;52.31
79703;BME280;69172;52.352;5.006;2023-04-10T07:33:39;101668.22;;;11.60;51.95
79703;BME280;69172;52.352;5.006;2023-04-10T07:36:05;101663.56;;;11.54;52.04
79703;BME280;69172;52.352;5.006;2023-04-10T07:38:31;101661.19;;;11.57;52.77
79703;BME280;69172;52.352;5.006;2023-04-10T07:40:57;101654.13;;;11.68;51.87
79703;BME280;69172;52.352;5.006;2023-04-10T07:43:23;101645.91;;;11.60;52.22
79703;BME280;69172;52.352;5.006;2023-04-10T07:45:49;101653.16;;;11.66;51.98
79703;BME280;69172;52.352;5.006;2023-04-10T07:48:16;101645.03;;;11.73;52.00
79703;BME280;69172;52.352;5.006;2023-04-10T07:50:41;101639.19;;;11.75;51.91
79703;BME280;69172;52.352;5.006;2023-04-10T07:53:07;101644.16;;;11.72;51.46
79703;BME280;69172;52.352;5.006;2023-04-10T07:55:43;101634.50;;;11.83;51.43
79703;BME280;69172;52.352;5.006;2023-04-10T07:58:09;101640.72;;;12.00;50.45
79703;BME280;69172;52.352;5.006;2023-04-10T08:00:34;101634.00;;;11.88;51.27
79703;BME280;69172;52.352;5.006;2023-04-10T08:03:00;101634.97;;;12.04;50.60
79703;BME280;69172;52.352;5.006;2023-04-10T08:05:25;101620.44;;;12.19;50.96
79703;BME280;69172;52.352;5.006;2023-04-10T08:07:51;101621.53;;;12.22;50.72
79703;BME280;69172;52.352;5.006;2023-04-10T08:10:16;101614.53;;;12.34;50.51
79703;BME280;69172;52.352;5.006;2023-04-10T08:12:42;101610.91;;;12.45;50.11
79703;BME280;69172;52.352;5.006;2023-04-10T08:15:08;101613.41;;;12.44;49.34
79703;BME280;69172;52.352;5.006;2023-04-10T08:17:33;101601.94;;;12.53;49.80
79703;BME280;69172;52.352;5.006;2023-04-10T08:20:00;101592.88;;;12.60;49.73
79703;BME280;69172;52.352;5.006;2023-04-10T08:22:25;101582.75;;;12.63;49.95
79703;BME280;69172;52.352;5.006;2023-04-10T08:24:50;101576.72;;;12.77;49.32
79703;BME280;69172;52.352;5.006;2023-04-10T08:27:16;101581.50;;;12.71;49.26
79703;BME280;69172;52.352;5.006;2023-04-10T08:29:41;101581.22;;;12.81;49.51
79703;BME280;69172;52.352;5.006;2023-04-10T08:32:07;101575.16;;;12.81;49.07
79703;BME280;69172;52.352;5.006;2023-04-10T08:34:33;101576.06;;;12.81;48.58
79703;BME280;69172;52.352;5.006;2023-04-10T08:36:58;101561.66;;;12.85;48.96
79703;BME280;69172;52.352;5.006;2023-04-10T08:39:26;101563.41;;;13.00;48.62
79703;BME280;69172;52.352;5.006;2023-04-10T08:41:51;101563.34;;;12.99;48.36
79703;BME280;69172;52.352;5.006;2023-04-10T08:44:16;101572.69;;;12.82;49.13
79703;BME280;69172;52.352;5.006;2023-04-10T08:46:43;101567.97;;;12.90;49.21
79703;BME280;69172;52.352;5.006;2023-04-10T08:49:18;101568.16;;;12.64;48.79
79703;BME280;69172;52.352;5.006;2023-04-10T08:51:57;101573.38;;;12.65;49.27
79703;BME280;69172;52.352;5.006;2023-04-10T08:54:26;101562.44;;;12.69;49.75
79703;BME280;69172;52.352;5.006;2023-04-10T08:56:53;101562.19;;;12.79;49.64
79703;BME280;69172;52.352;5.006;2023-04-10T08:59:19;101558.34;;;12.87;49.01
79703;BME280;69172;52.352;5.006;2023-04-10T09:01:45;101553.38;;;12.76;49.43
79703;BME280;69172;52.352;5.006;2023-04-10T09:04:13;101537.69;;;12.87;49.53
79703;BME280;69172;52.352;5.006;2023-04-10T09:06:40;101534.28;;;13.03;49.25
79703;BME280;69172;52.352;5.006;2023-04-10T09:09:06;101533.78;;;13.08;49.35
79703;BME280;69172;52.352;5.006;2023-04-10T09:14:29;101529.41;;;13.07;49.37
79703;BME280;69172;52.352;5.006;2023-04-10T09:17:19;101523.59;;;13.26;49.35
79703;BME280;69172;52.352;5.006;2023-04-10T09:19:46;101517.41;;;13.39;48.41
79703;BME280;69172;52.352;5.006;2023-04-10T09:22:12;101507.31;;;13.43;48.45
79703;BME280;69172;52.352;5.006;2023-04-10T09:24:40;101506.84;;;13.34;48.57
79703;BME280;69172;52.352;5.006;2023-04-10T09:27:06;101507.47;;;13.30;48.50
79703;BME280;69172;52.352;5.006;2023-04-10T09:29:42;101510.88;;;13.45;48.96
79703;BME280;69172;52.352;5.006;2023-04-10T09:32:08;101497.72;;;13.57;47.79
79703;BME280;69172;52.352;5.006;2023-04-10T09:34:34;101487.16;;;13.68;48.19
79703;BME280;69172;52.352;5.006;2023-04-10T09:36:59;101485.22;;;13.81;47.53
79703;BME280;69172;52.352;5.006;2023-04-10T09:39:36;101494.69;;;13.96;47.25
79703;BME280;69172;52.352;5.006;2023-04-10T09:42:05;101485.06;;;13.94;47.42
79703;BME280;69172;52.352;5.006;2023-04-10T09:44:35;101472.28;;;14.13;47.30
79703;BME280;69172;52.352;5.006;2023-04-10T09:47:15;101475.16;;;14.19;46.98
79703;BME280;69172;52.352;5.006;2023-04-10T09:49:48;101463.38;;;14.08;47.13
79703;BME280;69172;52.352;5.006;2023-04-10T09:54:42;101457.00;;;14.17;46.24
79703;BME280;69172;52.352;5.006;2023-04-10T09:57:08;101442.25;;;14.16;46.12
79703;BME280;69172;52.352;5.006;2023-04-10T09:59:36;101443.16;;;14.17;46.75
79703;BME280;69172;52.352;5.006;2023-04-10T10:02:02;101438.91;;;14.01;47.37
79703;BME280;69172;52.352;5.006;2023-04-10T10:04:30;101431.91;;;14.32;46.34
79703;BME280;69172;52.352;5.006;2023-04-10T10:06:56;101440.09;;;14.24;46.41
79703;BME280;69172;52.352;5.006;2023-04-10T10:09:22;101431.50;;;14.25;46.92
79703;BME280;69172;52.352;5.006;2023-04-10T10:11:49;101431.50;;;14.59;46.50
79703;BME280;69172;52.352;5.006;2023-04-10T10:14:17;101423.56;;;14.38;46.97
79703;BME280;69172;52.352;5.006;2023-04-10T10:16:49;101427.13;;;14.40;47.21
79703;BME280;69172;52.352;5.006;2023-04-10T10:19:32;101419.31;;;14.56;46.26
79703;BME280;69172;52.352;5.006;2023-04-10T10:22:01;101423.44;;;14.53;46.45
79703;BME280;69172;52.352;5.006;2023-04-10T10:24:28;101405.47;;;14.56;46.48
79703;BME280;69172;52.352;5.006;2023-04-10T10:26:57;101403.53;;;14.69;46.45
79703;BME280;69172;52.352;5.006;2023-04-10T10:29:23;101392.06;;;15.00;45.72
79703;BME280;69172;52.352;5.006;2023-04-10T10:31:49;101386.72;;;14.97;45.88
79703;BME280;69172;52.352;5.006;2023-04-10T10:34:16;101384.88;;;14.94;45.51
79703;BME280;69172;52.352;5.006;2023-04-10T10:36:42;101389.66;;;15.04;45.50
79703;BME280;69172;52.352;5.006;2023-04-10T10:41:59;101379.69;;;14.94;45.41
79703;BME280;69172;52.352;5.006;2023-04-10T10:44:48;101348.63;;;14.94;46.20
79703;BME280;69172;52.352;5.006;2023-04-10T10:50:00;101358.03;;;15.11;45.54
79703;BME280;69172;52.352;5.006;2023-04-10T10:52:45;101354.56;;;15.11;45.37
79703;BME280;69172;52.352;5.006;2023-04-10T10:58:06;101338.13;;;15.10;45.97
79703;BME280;69172;52.352;5.006;2023-04-10T11:05:58;101313.56;;;15.79;44.34
79703;BME280;69172;52.352;5.006;2023-04-10T11:08:45;101308.56;;;15.83;44.11
79703;BME280;69172;52.352;5.006;2023-04-10T11:11:16;101304.31;;;15.85;44.79
79703;BME280;69172;52.352;5.006;2023-04-10T11:19:05;101293.88;;;16.04;43.88
79703;BME280;69172;52.352;5.006;2023-04-10T11:21:31;101289.44;;;16.02;44.19
79703;BME280;69172;52.352;5.006;2023-04-10T11:26:37;101281.47;;;16.40;44.04
79703;BME280;69172;52.352;5.006;2023-04-10T11:31:45;101264.09;;;16.60;43.41
79703;BME280;69172;52.352;5.006;2023-04-10T11:34:11;101263.72;;;16.73;43.24
79703;BME280;69172;52.352;5.006;2023-04-10T11:36:38;101252.56;;;16.76;42.96
79703;BME280;69172;52.352;5.006;2023-04-10T11:39:05;101253.63;;;16.81;42.85
79703;BME280;69172;52.352;5.006;2023-04-10T11:41:39;101238.81;;;16.78;42.90
79703;BME280;69172;52.352;5.006;2023-04-10T11:44:08;101237.75;;;16.73;43.08
79703;BME280;69172;52.352;5.006;2023-04-10T11:46:43;101233.38;;;16.72;42.92
79703;BME280;69172;52.352;5.006;2023-04-10T11:49:11;101224.38;;;16.86;42.86
79703;BME280;69172;52.352;5.006;2023-04-10T11:51:38;101213.94;;;17.08;42.37
79703;BME280;69172;52.352;5.006;2023-04-10T11:54:09;101213.72;;;16.79;42.62
79703;BME280;69172;52.352;5.006;2023-04-10T11:56:36;101204.50;;;16.87;43.15
79703;BME280;69172;52.352;5.006;2023-04-10T11:59:02;101189.03;;;16.90;42.37
79703;BME280;69172;52.352;5.006;2023-04-10T12:01:34;101185.06;;;16.77;42.63
79703;BME280;69172;52.352;5.006;2023-04-10T12:04:00;101184.91;;;16.73;43.85
79703;BME280;69172;52.352;5.006;2023-04-10T12:06:26;101182.38;;;16.74;43.66
79703;BME280;69172;52.352;5.006;2023-04-10T12:08:52;101178.03;;;16.51;44.14
79703;BME280;69172;52.352;5.006;2023-04-10T12:11:19;101178.44;;;16.39;44.45
79703;BME280;69172;52.352;5.006;2023-04-10T12:13:45;101162.06;;;16.18;45.05
79703;BME280;69172;52.352;5.006;2023-04-10T12:16:12;101156.06;;;16.19;44.79
79703;BME280;69172;52.352;5.006;2023-04-10T12:18:37;101146.97;;;16.08;46.12
79703;BME280;69172;52.352;5.006;2023-04-10T12:21:03;101154.00;;;16.11;45.96
79703;BME280;69172;52.352;5.006;2023-04-10T12:23:29;101145.38;;;16.12;46.10
79703;BME280;69172;52.352;5.006;2023-04-10T12:28:32;101152.56;;;15.96;46.57
79703;BME280;69172;52.352;5.006;2023-04-10T12:30:57;101136.31;;;16.00;46.48
79703;BME280;69172;52.352;5.006;2023-04-10T12:33:23;101140.00;;;16.07;46.98
79703;BME280;69172;52.352;5.006;2023-04-10T12:35:50;101119.66;;;15.95;46.59
79703;BME280;69172;52.352;5.006;2023-04-10T12:38:40;101121.28;;;15.92;45.82
79703;BME280;69172;52.352;5.006;2023-04-10T12:41:06;101120.75;;;15.78;46.33
79703;BME280;69172;52.352;5.006;2023-04-10T12:43:42;101109.53;;;15.79;46.91
79703;BME280;69172;52.352;5.006;2023-04-10T12:46:22;101107.69;;;15.77;46.88
79703;BME280;69172;52.352;5.006;2023-04-10T12:48:48;101116.22;;;15.73;46.84
79703;BME280;69172;52.352;5.006;2023-04-10T12:51:14;101106.88;;;15.78;47.21
79703;BME280;69172;52.352;5.006;2023-04-10T12:53:43;101107.66;;;15.75;47.03
79703;BME280;69172;52.352;5.006;2023-04-10T12:56:09;101103.81;;;15.66;47.43
79703;BME280;69172;52.352;5.006;2023-04-10T12:58:38;101099.22;;;15.59;47.96
79703;BME280;69172;52.352;5.006;2023-04-10T13:01:05;101114.91;;;15.62;48.04
79703;BME280;69172;52.352;5.006;2023-04-10T13:03:36;101111.16;;;15.55;48.24
79703;BME280;69172;52.352;5.006;2023-04-10T13:06:04;101101.06;;;15.40;48.28
79703;BME280;69172;52.352;5.006;2023-04-10T13:08:30;101108.28;;;15.47;48.64
79703;BME280;69172;52.352;5.006;2023-04-10T13:10:59;101095.38;;;15.49;50.41
79703;BME280;69172;52.352;5.006;2023-04-10T13:13:28;101090.69;;;15.40;52.54
79703;BME280;69172;52.352;5.006;2023-04-10T13:15:58;101097.50;;;15.38;52.58
79703;BME280;69172;52.352;5.006;2023-04-10T13:18:24;101076.66;;;15.35;52.68
79703;BME280;69172;52.352;5.006;2023-04-10T13:20:50;101074.25;;;15.19;54.36
79703;BME280;69172;52.352;5.006;2023-04-10T13:23:15;101066.56;;;15.21;54.40
79703;BME280;69172;52.352;5.006;2023-04-10T13:25:40;101068.34;;;15.22;55.43
79703;BME280;69172;52.352;5.006;2023-04-10T13:28:08;101067.19;;;15.15;56.35
79703;BME280;69172;52.352;5.006;2023-04-10T13:30:40;101058.91;;;15.03;57.18
79703;BME280;69172;52.352;5.006;2023-04-10T13:33:07;101048.09;;;14.93;57.03
79703;BME280;69172;52.352;5.006;2023-04-10T13:35:33;101038.94;;;14.80;58.07
79703;BME280;69172;52.352;5.006;2023-04-10T13:37:59;101032.63;;;14.73;57.85
79703;BME280;69172;52.352;5.006;2023-04-10T13:40:25;101039.94;;;14.63;58.26
79703;BME280;69172;52.352;5.006;2023-04-10T13:42:50;101032.03;;;14.60;58.36
79703;BME280;69172;52.352;5.006;2023-04-10T13:45:15;101018.03;;;14.55;60.29
79703;BME280;69172;52.352;5.006;2023-04-10T13:47:41;101011.97;;;14.54;61.13
79703;BME280;69172;52.352;5.006;2023-04-10T13:50:07;101003.59;;;14.41;60.91
79703;BME280;69172;52.352;5.006;2023-04-10T13:52:33;101010.06;;;14.50;62.10
79703;BME280;69172;52.352;5.006;2023-04-10T13:54:58;101004.44;;;14.40;61.02
79703;BME280;69172;52.352;5.006;2023-04-10T13:57:23;101007.50;;;14.31;60.55
79703;BME280;69172;52.352;5.006;2023-04-10T13:59:49;100996.13;;;14.27;61.80
79703;BME280;69172;52.352;5.006;2023-04-10T14:02:15;101007.31;;;14.26;61.65
79703;BME280;69172;52.352;5.006;2023-04-10T14:04:40;101005.09;;;14.16;62.15
79703;BME280;69172;52.352;5.006;2023-04-10T14:07:08;101012.06;;;14.17;63.75
79703;BME280;69172;52.352;5.006;2023-04-10T14:09:33;101017.66;;;14.07;62.35
79703;BME280;69172;52.352;5.006;2023-04-10T14:11:58;101010.72;;;14.06;65.96
79703;BME280;69172;52.352;5.006;2023-04-10T14:14:25;101018.28;;;14.02;65.81
79703;BME280;69172;52.352;5.006;2023-04-10T14:16:51;101009.81;;;13.87;65.12
79703;BME280;69172;52.352;5.006;2023-04-10T14:19:16;101005.38;;;13.65;65.95
79703;BME280;69172;52.352;5.006;2023-04-10T14:21:41;101000.78;;;13.77;66.61
79703;BME280;69172;52.352;5.006;2023-04-10T14:24:08;101004.34;;;13.81;68.00
79703;BME280;69172;52.352;5.006;2023-04-10T14:26:34;101003.88;;;13.70;67.04
79703;BME280;69172;52.352;5.006;2023-04-10T14:28:59;100996.59;;;13.42;67.71
79703;BME280;69172;52.352;5.006;2023-04-10T14:31:24;101011.88;;;13.20;68.72
79703;BME280;69172;52.352;5.006;2023-04-10T14:33:50;100992.50;;;12.94;71.03
79703;BME280;69172;52.352;5.006;2023-04-10T14:36:15;100992.00;;;13.01;70.47
79703;BME280;69172;52.352;5.006;2023-04-10T14:38:42;100981.13;;;13.07;70.68
79703;BME280;69172;52.352;5.006;2023-04-10T14:41:07;100976.97;;;12.93;70.99
79703;BME280;69172;52.352;5.006;2023-04-10T14:43:32;100964.47;;;12.67;71.15
79703;BME280;69172;52.352;5.006;2023-04-10T14:45:58;100960.28;;;12.69;71.33
79703;BME280;69172;52.352;5.006;2023-04-10T14:48:24;100963.97;;;12.74;72.77
79703;BME280;69172;52.352;5.006;2023-04-10T14:50:49;100956.19;;;12.56;72.99